Terminal Aerodrome Forecast
Issued by NWS

Home | Current Version | Previous Version | Text Only | Print | Product List | Glossary On
Versions: 1 2 3 4 5 6 7 8 9 10 11 12
000
FTUS43 KMQT 031137
TAFCMX
TAF
KCMX 031137Z 0312/0412 19008KT P6SM BKN100
     FM031600 20008KT P6SM VCSH BKN110
     FM032000 00000KT P6SM -SHRA OVC060
     FM040500 00000KT P6SM -SHRA OVC030
     FM040900 00000KT P6SM -SHRA OVC010=

USA.gov is the U.S. government's official web portal to all federal, state and local government web resources and services.